sensor_id;sensor_type;location;lat;lon;timestamp;P1;durP1;ratioP1;P2;durP2;ratioP2
2388;SDS011;1205;47.984;7.668;2023-06-22T00:00:50;20.60;;;13.57;;
2388;SDS011;1205;47.984;7.668;2023-06-22T00:03:18;28.37;;;14.37;;
2388;SDS011;1205;47.984;7.668;2023-06-22T00:05:45;19.03;;;13.17;;
2388;SDS011;1205;47.984;7.668;2023-06-22T00:08:10;21.33;;;13.97;;
2388;SDS011;1205;47.984;7.668;2023-06-22T00:10:36;32.63;;;14.70;;
2388;SDS011;1205;47.984;7.668;2023-06-22T00:13:02;27.53;;;15.47;;
2388;SDS011;1205;47.984;7.668;2023-06-22T00:15:28;27.47;;;15.60;;
2388;SDS011;1205;47.984;7.668;2023-06-22T00:17:54;18.17;;;15.60;;
2388;SDS011;1205;47.984;7.668;2023-06-22T00:20:19;27.50;;;15.30;;
2388;SDS011;1205;47.984;7.668;2023-06-22T00:22:45;24.93;;;15.43;;
2388;SDS011;1205;47.984;7.668;2023-06-22T00:25:11;27.10;;;14.10;;
2388;SDS011;1205;47.984;7.668;2023-06-22T00:27:36;25.60;;;14.60;;
2388;SDS011;1205;47.984;7.668;2023-06-22T00:30:02;24.00;;;15.40;;
2388;SDS011;1205;47.984;7.668;2023-06-22T00:32:28;27.50;;;15.13;;
2388;SDS011;1205;47.984;7.668;2023-06-22T00:34:54;24.00;;;13.50;;
2388;SDS011;1205;47.984;7.668;2023-06-22T00:37:19;45.20;;;13.97;;
2388;SDS011;1205;47.984;7.668;2023-06-22T00:39:50;54.70;;;13.90;;
2388;SDS011;1205;47.984;7.668;2023-06-22T00:42:16;39.53;;;15.03;;
2388;SDS011;1205;47.984;7.668;2023-06-22T00:44:42;60.03;;;14.70;;
2388;SDS011;1205;47.984;7.668;2023-06-22T00:47:10;44.00;;;13.60;;
2388;SDS011;1205;47.984;7.668;2023-06-22T00:49:38;39.83;;;12.93;;
2388;SDS011;1205;47.984;7.668;2023-06-22T00:52:04;22.30;;;16.47;;
2388;SDS011;1205;47.984;7.668;2023-06-22T00:54:39;27.23;;;15.83;;
2388;SDS011;1205;47.984;7.668;2023-06-22T00:57:10;24.87;;;17.47;;
2388;SDS011;1205;47.984;7.668;2023-06-22T00:59:37;22.30;;;16.30;;
2388;SDS011;1205;47.984;7.668;2023-06-22T01:02:04;18.63;;;13.70;;
2388;SDS011;1205;47.984;7.668;2023-06-22T01:04:34;16.43;;;11.33;;
2388;SDS011;1205;47.984;7.668;2023-06-22T01:07:05;26.40;;;11.87;;
2388;SDS011;1205;47.984;7.668;2023-06-22T01:09:59;59.40;;;17.40;;
2388;SDS011;1205;47.984;7.668;2023-06-22T01:12:42;31.33;;;13.53;;
2388;SDS011;1205;47.984;7.668;2023-06-22T01:17:44;19.43;;;14.60;;
2388;SDS011;1205;47.984;7.668;2023-06-22T01:20:10;56.93;;;18.20;;
2388;SDS011;1205;47.984;7.668;2023-06-22T01:25:33;40.47;;;24.63;;
2388;SDS011;1205;47.984;7.668;2023-06-22T01:28:13;24.80;;;19.80;;
2388;SDS011;1205;47.984;7.668;2023-06-22T01:31:00;21.10;;;16.43;;
2388;SDS011;1205;47.984;7.668;2023-06-22T01:33:30;24.90;;;16.23;;
2388;SDS011;1205;47.984;7.668;2023-06-22T01:35:59;20.93;;;16.87;;
2388;SDS011;1205;47.984;7.668;2023-06-22T01:38:26;23.63;;;17.33;;
2388;SDS011;1205;47.984;7.668;2023-06-22T01:40:53;34.03;;;24.20;;
2388;SDS011;1205;47.984;7.668;2023-06-22T01:43:21;38.83;;;27.00;;
2388;SDS011;1205;47.984;7.668;2023-06-22T01:45:48;92.83;;;50.77;;
2388;SDS011;1205;47.984;7.668;2023-06-22T01:48:14;56.80;;;35.10;;
2388;SDS011;1205;47.984;7.668;2023-06-22T01:50:40;47.00;;;32.87;;
2388;SDS011;1205;47.984;7.668;2023-06-22T01:53:06;34.50;;;21.27;;
2388;SDS011;1205;47.984;7.668;2023-06-22T01:55:32;45.50;;;27.93;;
2388;SDS011;1205;47.984;7.668;2023-06-22T01:57:57;101.27;;;65.30;;
2388;SDS011;1205;47.984;7.668;2023-06-22T02:00:23;53.60;;;36.03;;
2388;SDS011;1205;47.984;7.668;2023-06-22T02:02:54;45.97;;;30.77;;
2388;SDS011;1205;47.984;7.668;2023-06-22T02:05:31;37.57;;;21.33;;
2388;SDS011;1205;47.984;7.668;2023-06-22T02:10:48;26.43;;;18.70;;
2388;SDS011;1205;47.984;7.668;2023-06-22T02:13:15;24.87;;;18.00;;
2388;SDS011;1205;47.984;7.668;2023-06-22T02:15:42;25.50;;;19.60;;
2388;SDS011;1205;47.984;7.668;2023-06-22T02:18:08;26.83;;;18.83;;
2388;SDS011;1205;47.984;7.668;2023-06-22T02:20:36;24.63;;;18.87;;
2388;SDS011;1205;47.984;7.668;2023-06-22T02:23:02;30.10;;;18.23;;
2388;SDS011;1205;47.984;7.668;2023-06-22T02:25:28;32.70;;;17.73;;
2388;SDS011;1205;47.984;7.668;2023-06-22T02:27:53;32.87;;;18.13;;
2388;SDS011;1205;47.984;7.668;2023-06-22T02:30:19;27.00;;;18.10;;
2388;SDS011;1205;47.984;7.668;2023-06-22T02:32:45;34.70;;;19.90;;
2388;SDS011;1205;47.984;7.668;2023-06-22T02:35:10;33.03;;;21.57;;
2388;SDS011;1205;47.984;7.668;2023-06-22T02:37:36;32.27;;;19.10;;
2388;SDS011;1205;47.984;7.668;2023-06-22T02:40:09;29.50;;;17.93;;
2388;SDS011;1205;47.984;7.668;2023-06-22T02:42:36;30.50;;;18.20;;
2388;SDS011;1205;47.984;7.668;2023-06-22T02:45:02;25.67;;;18.07;;
2388;SDS011;1205;47.984;7.668;2023-06-22T02:47:28;34.30;;;19.60;;
2388;SDS011;1205;47.984;7.668;2023-06-22T02:49:54;27.50;;;18.73;;
2388;SDS011;1205;47.984;7.668;2023-06-22T02:52:19;28.63;;;20.63;;
2388;SDS011;1205;47.984;7.668;2023-06-22T02:54:45;25.47;;;20.10;;
2388;SDS011;1205;47.984;7.668;2023-06-22T02:57:11;23.07;;;18.20;;
2388;SDS011;1205;47.984;7.668;2023-06-22T02:59:39;25.10;;;18.33;;
2388;SDS011;1205;47.984;7.668;2023-06-22T03:02:08;26.00;;;17.83;;
2388;SDS011;1205;47.984;7.668;2023-06-22T03:04:34;31.07;;;20.13;;
2388;SDS011;1205;47.984;7.668;2023-06-22T03:07:00;24.27;;;19.03;;
2388;SDS011;1205;47.984;7.668;2023-06-22T03:09:26;24.47;;;18.73;;
2388;SDS011;1205;47.984;7.668;2023-06-22T03:11:52;25.70;;;21.03;;
2388;SDS011;1205;47.984;7.668;2023-06-22T03:14:18;34.50;;;19.67;;
2388;SDS011;1205;47.984;7.668;2023-06-22T03:16:44;25.17;;;17.53;;
2388;SDS011;1205;47.984;7.668;2023-06-22T03:19:10;24.30;;;18.27;;
2388;SDS011;1205;47.984;7.668;2023-06-22T03:21:37;24.97;;;19.77;;
2388;SDS011;1205;47.984;7.668;2023-06-22T03:24:03;28.67;;;19.60;;
2388;SDS011;1205;47.984;7.668;2023-06-22T03:26:30;28.80;;;18.73;;
2388;SDS011;1205;47.984;7.668;2023-06-22T03:28:55;25.23;;;18.40;;
2388;SDS011;1205;47.984;7.668;2023-06-22T03:31:21;26.37;;;17.93;;
2388;SDS011;1205;47.984;7.668;2023-06-22T03:33:47;24.87;;;18.60;;
2388;SDS011;1205;47.984;7.668;2023-06-22T03:36:14;20.80;;;16.00;;
2388;SDS011;1205;47.984;7.668;2023-06-22T03:38:43;23.93;;;15.90;;
2388;SDS011;1205;47.984;7.668;2023-06-22T03:41:13;23.93;;;17.70;;
2388;SDS011;1205;47.984;7.668;2023-06-22T03:43:38;28.63;;;16.70;;
2388;SDS011;1205;47.984;7.668;2023-06-22T03:46:04;40.83;;;19.83;;
2388;SDS011;1205;47.984;7.668;2023-06-22T03:48:30;39.13;;;17.27;;
2388;SDS011;1205;47.984;7.668;2023-06-22T03:50:56;20.73;;;15.03;;
2388;SDS011;1205;47.984;7.668;2023-06-22T03:53:21;34.13;;;16.70;;
2388;SDS011;1205;47.984;7.668;2023-06-22T03:55:50;22.63;;;18.40;;
2388;SDS011;1205;47.984;7.668;2023-06-22T03:58:17;24.53;;;15.87;;
2388;SDS011;1205;47.984;7.668;2023-06-22T04:00:48;29.60;;;16.30;;
2388;SDS011;1205;47.984;7.668;2023-06-22T04:03:16;23.10;;;16.67;;
2388;SDS011;1205;47.984;7.668;2023-06-22T04:05:43;30.70;;;17.50;;
2388;SDS011;1205;47.984;7.668;2023-06-22T04:08:10;32.43;;;19.33;;
2388;SDS011;1205;47.984;7.668;2023-06-22T04:10:37;32.00;;;17.93;;
2388;SDS011;1205;47.984;7.668;2023-06-22T04:13:02;36.60;;;17.13;;
2388;SDS011;1205;47.984;7.668;2023-06-22T04:15:28;45.20;;;16.80;;
2388;SDS011;1205;47.984;7.668;2023-06-22T04:17:54;42.33;;;17.07;;
2388;SDS011;1205;47.984;7.668;2023-06-22T04:20:21;33.87;;;15.97;;
2388;SDS011;1205;47.984;7.668;2023-06-22T04:22:46;37.27;;;17.13;;
2388;SDS011;1205;47.984;7.668;2023-06-22T04:25:12;33.70;;;18.33;;
2388;SDS011;1205;47.984;7.668;2023-06-22T04:27:37;24.20;;;16.00;;
2388;SDS011;1205;47.984;7.668;2023-06-22T04:30:06;36.50;;;15.73;;
2388;SDS011;1205;47.984;7.668;2023-06-22T04:32:33;34.57;;;17.40;;
2388;SDS011;1205;47.984;7.668;2023-06-22T04:35:01;35.90;;;17.40;;
2388;SDS011;1205;47.984;7.668;2023-06-22T04:37:27;32.23;;;17.70;;
2388;SDS011;1205;47.984;7.668;2023-06-22T04:39:53;26.80;;;15.60;;
2388;SDS011;1205;47.984;7.668;2023-06-22T04:42:19;40.07;;;19.53;;
2388;SDS011;1205;47.984;7.668;2023-06-22T04:44:44;33.80;;;17.10;;
2388;SDS011;1205;47.984;7.668;2023-06-22T04:47:10;26.87;;;16.33;;
2388;SDS011;1205;47.984;7.668;2023-06-22T04:49:36;36.57;;;16.17;;
2388;SDS011;1205;47.984;7.668;2023-06-22T04:52:03;28.97;;;16.00;;
2388;SDS011;1205;47.984;7.668;2023-06-22T04:54:30;31.00;;;15.63;;
2388;SDS011;1205;47.984;7.668;2023-06-22T04:56:58;23.77;;;14.20;;
2388;SDS011;1205;47.984;7.668;2023-06-22T04:59:27;16.17;;;12.70;;
2388;SDS011;1205;47.984;7.668;2023-06-22T05:01:55;19.30;;;11.80;;
2388;SDS011;1205;47.984;7.668;2023-06-22T05:04:24;25.57;;;13.20;;
2388;SDS011;1205;47.984;7.668;2023-06-22T05:06:51;20.67;;;12.73;;
2388;SDS011;1205;47.984;7.668;2023-06-22T05:09:17;31.20;;;12.80;;
2388;SDS011;1205;47.984;7.668;2023-06-22T05:11:44;19.83;;;12.03;;
2388;SDS011;1205;47.984;7.668;2023-06-22T05:14:10;27.10;;;12.60;;
2388;SDS011;1205;47.984;7.668;2023-06-22T05:16:38;24.13;;;13.40;;
2388;SDS011;1205;47.984;7.668;2023-06-22T05:19:06;28.47;;;12.80;;
2388;SDS011;1205;47.984;7.668;2023-06-22T05:21:31;23.50;;;12.77;;
2388;SDS011;1205;47.984;7.668;2023-06-22T05:23:57;32.40;;;11.60;;
2388;SDS011;1205;47.984;7.668;2023-06-22T05:26:25;26.77;;;12.70;;
2388;SDS011;1205;47.984;7.668;2023-06-22T05:28:51;34.33;;;11.40;;
2388;SDS011;1205;47.984;7.668;2023-06-22T05:31:18;27.80;;;12.43;;
2388;SDS011;1205;47.984;7.668;2023-06-22T05:33:47;27.90;;;13.20;;
2388;SDS011;1205;47.984;7.668;2023-06-22T05:36:14;21.90;;;12.60;;
2388;SDS011;1205;47.984;7.668;2023-06-22T05:38:40;26.73;;;13.13;;
2388;SDS011;1205;47.984;7.668;2023-06-22T05:41:06;22.57;;;11.30;;
2388;SDS011;1205;47.984;7.668;2023-06-22T05:43:32;26.13;;;11.63;;
2388;SDS011;1205;47.984;7.668;2023-06-22T05:45:59;25.30;;;13.03;;
2388;SDS011;1205;47.984;7.668;2023-06-22T05:48:26;18.33;;;9.67;;
2388;SDS011;1205;47.984;7.668;2023-06-22T05:50:52;24.83;;;11.53;;
2388;SDS011;1205;47.984;7.668;2023-06-22T05:53:18;17.50;;;10.03;;
2388;SDS011;1205;47.984;7.668;2023-06-22T05:55:44;25.80;;;14.50;;
2388;SDS011;1205;47.984;7.668;2023-06-22T05:58:10;17.13;;;11.63;;
2388;SDS011;1205;47.984;7.668;2023-06-22T06:00:36;23.50;;;12.80;;
2388;SDS011;1205;47.984;7.668;2023-06-22T06:03:02;15.30;;;11.93;;
2388;SDS011;1205;47.984;7.668;2023-06-22T06:05:28;27.90;;;14.00;;
2388;SDS011;1205;47.984;7.668;2023-06-22T06:07:55;28.80;;;14.77;;
2388;SDS011;1205;47.984;7.668;2023-06-22T06:10:21;23.90;;;17.00;;
2388;SDS011;1205;47.984;7.668;2023-06-22T06:12:46;25.90;;;15.83;;
2388;SDS011;1205;47.984;7.668;2023-06-22T06:15:12;24.20;;;18.17;;
2388;SDS011;1205;47.984;7.668;2023-06-22T06:17:53;31.33;;;18.17;;
2388;SDS011;1205;47.984;7.668;2023-06-22T06:20:20;35.47;;;18.17;;
2388;SDS011;1205;47.984;7.668;2023-06-22T06:22:47;17.13;;;14.37;;
2388;SDS011;1205;47.984;7.668;2023-06-22T06:25:13;21.70;;;14.50;;
2388;SDS011;1205;47.984;7.668;2023-06-22T06:27:43;29.03;;;17.80;;
2388;SDS011;1205;47.984;7.668;2023-06-22T06:30:13;28.63;;;19.80;;
2388;SDS011;1205;47.984;7.668;2023-06-22T06:32:40;18.90;;;16.60;;
2388;SDS011;1205;47.984;7.668;2023-06-22T06:35:07;19.13;;;14.90;;
2388;SDS011;1205;47.984;7.668;2023-06-22T06:37:38;24.50;;;15.10;;
2388;SDS011;1205;47.984;7.668;2023-06-22T06:40:05;23.17;;;17.07;;
2388;SDS011;1205;47.984;7.668;2023-06-22T06:42:38;19.83;;;14.60;;
2388;SDS011;1205;47.984;7.668;2023-06-22T06:45:10;22.10;;;16.70;;
2388;SDS011;1205;47.984;7.668;2023-06-22T06:47:36;23.77;;;16.87;;
2388;SDS011;1205;47.984;7.668;2023-06-22T06:50:03;23.27;;;17.67;;
2388;SDS011;1205;47.984;7.668;2023-06-22T06:52:29;25.83;;;19.90;;
2388;SDS011;1205;47.984;7.668;2023-06-22T06:54:55;26.97;;;19.00;;
2388;SDS011;1205;47.984;7.668;2023-06-22T06:57:20;22.57;;;17.40;;
2388;SDS011;1205;47.984;7.668;2023-06-22T06:59:47;24.83;;;18.80;;
2388;SDS011;1205;47.984;7.668;2023-06-22T07:02:14;29.10;;;19.83;;
2388;SDS011;1205;47.984;7.668;2023-06-22T07:04:40;28.80;;;20.90;;
2388;SDS011;1205;47.984;7.668;2023-06-22T07:07:05;23.37;;;18.63;;
2388;SDS011;1205;47.984;7.668;2023-06-22T07:09:31;27.33;;;18.60;;
2388;SDS011;1205;47.984;7.668;2023-06-22T07:11:57;27.90;;;19.70;;
2388;SDS011;1205;47.984;7.668;2023-06-22T07:14:22;21.87;;;18.10;;
2388;SDS011;1205;47.984;7.668;2023-06-22T07:16:48;25.83;;;18.87;;
2388;SDS011;1205;47.984;7.668;2023-06-22T07:19:13;22.93;;;18.50;;
2388;SDS011;1205;47.984;7.668;2023-06-22T07:21:39;23.47;;;19.20;;
2388;SDS011;1205;47.984;7.668;2023-06-22T07:24:04;24.37;;;19.20;;
2388;SDS011;1205;47.984;7.668;2023-06-22T07:26:31;20.93;;;16.80;;
2388;SDS011;1205;47.984;7.668;2023-06-22T07:28:57;26.00;;;19.30;;
2388;SDS011;1205;47.984;7.668;2023-06-22T07:31:24;24.27;;;18.83;;
2388;SDS011;1205;47.984;7.668;2023-06-22T07:33:50;19.83;;;17.63;;
2388;SDS011;1205;47.984;7.668;2023-06-22T07:36:16;27.83;;;20.00;;
2388;SDS011;1205;47.984;7.668;2023-06-22T07:38:42;22.13;;;19.80;;
2388;SDS011;1205;47.984;7.668;2023-06-22T07:41:08;23.40;;;18.23;;
2388;SDS011;1205;47.984;7.668;2023-06-22T07:43:33;24.03;;;17.20;;
2388;SDS011;1205;47.984;7.668;2023-06-22T07:46:01;30.43;;;19.70;;
2388;SDS011;1205;47.984;7.668;2023-06-22T07:48:28;22.80;;;18.33;;
2388;SDS011;1205;47.984;7.668;2023-06-22T07:50:53;31.83;;;17.00;;
2388;SDS011;1205;47.984;7.668;2023-06-22T07:53:19;20.40;;;17.60;;
2388;SDS011;1205;47.984;7.668;2023-06-22T07:55:45;24.43;;;18.13;;
2388;SDS011;1205;47.984;7.668;2023-06-22T07:58:11;28.87;;;19.43;;
2388;SDS011;1205;47.984;7.668;2023-06-22T08:00:37;32.93;;;18.33;;
2388;SDS011;1205;47.984;7.668;2023-06-22T08:03:02;24.03;;;17.87;;
2388;SDS011;1205;47.984;7.668;2023-06-22T08:05:30;21.57;;;15.47;;
2388;SDS011;1205;47.984;7.668;2023-06-22T08:07:55;19.20;;;15.70;;
2388;SDS011;1205;47.984;7.668;2023-06-22T08:10:21;21.13;;;15.40;;
2388;SDS011;1205;47.984;7.668;2023-06-22T08:12:47;18.93;;;16.70;;
2388;SDS011;1205;47.984;7.668;2023-06-22T08:15:12;21.77;;;15.87;;
2388;SDS011;1205;47.984;7.668;2023-06-22T08:17:38;20.13;;;16.17;;
2388;SDS011;1205;47.984;7.668;2023-06-22T08:20:04;16.70;;;13.63;;
2388;SDS011;1205;47.984;7.668;2023-06-22T08:22:35;31.20;;;14.80;;
2388;SDS011;1205;47.984;7.668;2023-06-22T08:25:01;22.00;;;14.47;;
2388;SDS011;1205;47.984;7.668;2023-06-22T08:27:29;14.80;;;13.30;;
2388;SDS011;1205;47.984;7.668;2023-06-22T08:29:56;22.80;;;12.30;;
2388;SDS011;1205;47.984;7.668;2023-06-22T08:32:24;23.23;;;14.30;;
2388;SDS011;1205;47.984;7.668;2023-06-22T08:34:51;28.10;;;16.30;;
2388;SDS011;1205;47.984;7.668;2023-06-22T08:37:17;16.63;;;14.10;;
2388;SDS011;1205;47.984;7.668;2023-06-22T08:39:43;16.50;;;13.87;;
2388;SDS011;1205;47.984;7.668;2023-06-22T08:42:08;26.03;;;12.33;;
2388;SDS011;1205;47.984;7.668;2023-06-22T08:44:34;18.50;;;11.10;;
2388;SDS011;1205;47.984;7.668;2023-06-22T08:46:59;14.60;;;10.70;;
2388;SDS011;1205;47.984;7.668;2023-06-22T08:49:25;29.90;;;13.47;;
2388;SDS011;1205;47.984;7.668;2023-06-22T08:51:51;13.07;;;10.80;;
2388;SDS011;1205;47.984;7.668;2023-06-22T08:54:18;17.27;;;11.83;;
2388;SDS011;1205;47.984;7.668;2023-06-22T08:56:43;18.53;;;11.40;;
2388;SDS011;1205;47.984;7.668;2023-06-22T08:59:09;17.17;;;10.97;;
2388;SDS011;1205;47.984;7.668;2023-06-22T09:01:35;17.67;;;10.57;;
2388;SDS011;1205;47.984;7.668;2023-06-22T09:04:00;14.40;;;11.20;;
2388;SDS011;1205;47.984;7.668;2023-06-22T09:06:26;14.27;;;10.43;;
2388;SDS011;1205;47.984;7.668;2023-06-22T09:08:51;19.23;;;9.60;;
2388;SDS011;1205;47.984;7.668;2023-06-22T09:11:17;14.53;;;9.80;;
2388;SDS011;1205;47.984;7.668;2023-06-22T09:13:43;13.53;;;9.20;;
2388;SDS011;1205;47.984;7.668;2023-06-22T09:16:09;21.93;;;9.87;;
2388;SDS011;1205;47.984;7.668;2023-06-22T09:18:35;14.27;;;8.73;;
2388;SDS011;1205;47.984;7.668;2023-06-22T09:21:01;15.37;;;9.10;;
2388;SDS011;1205;47.984;7.668;2023-06-22T09:23:26;16.13;;;9.90;;
2388;SDS011;1205;47.984;7.668;2023-06-22T09:25:52;13.43;;;9.37;;
2388;SDS011;1205;47.984;7.668;2023-06-22T09:28:18;19.20;;;9.10;;
2388;SDS011;1205;47.984;7.668;2023-06-22T09:30:43;21.23;;;10.83;;
2388;SDS011;1205;47.984;7.668;2023-06-22T09:33:09;14.53;;;10.33;;
2388;SDS011;1205;47.984;7.668;2023-06-22T09:35:35;14.47;;;10.17;;
2388;SDS011;1205;47.984;7.668;2023-06-22T09:38:00;16.20;;;11.93;;
2388;SDS011;1205;47.984;7.668;2023-06-22T09:40:26;14.90;;;11.33;;
2388;SDS011;1205;47.984;7.668;2023-06-22T09:42:52;14.70;;;10.50;;
2388;SDS011;1205;47.984;7.668;2023-06-22T09:45:17;12.43;;;10.37;;
2388;SDS011;1205;47.984;7.668;2023-06-22T09:47:43;16.00;;;10.73;;
2388;SDS011;1205;47.984;7.668;2023-06-22T09:50:08;19.60;;;9.90;;
2388;SDS011;1205;47.984;7.668;2023-06-22T09:52:34;13.90;;;8.40;;
2388;SDS011;1205;47.984;7.668;2023-06-22T09:55:00;14.17;;;8.70;;
2388;SDS011;1205;47.984;7.668;2023-06-22T09:57:25;18.23;;;8.30;;
2388;SDS011;1205;47.984;7.668;2023-06-22T09:59:51;20.20;;;9.20;;
2388;SDS011;1205;47.984;7.668;2023-06-22T10:02:16;19.80;;;9.80;;
2388;SDS011;1205;47.984;7.668;2023-06-22T10:04:42;36.90;;;19.63;;
2388;SDS011;1205;47.984;7.668;2023-06-22T10:07:07;18.90;;;9.63;;
2388;SDS011;1205;47.984;7.668;2023-06-22T10:09:33;14.70;;;8.23;;
2388;SDS011;1205;47.984;7.668;2023-06-22T10:11:59;18.97;;;9.30;;
2388;SDS011;1205;47.984;7.668;2023-06-22T10:14:24;20.47;;;8.60;;
2388;SDS011;1205;47.984;7.668;2023-06-22T10:16:51;13.03;;;9.47;;
2388;SDS011;1205;47.984;7.668;2023-06-22T10:19:17;21.30;;;9.33;;
2388;SDS011;1205;47.984;7.668;2023-06-22T10:21:43;18.30;;;9.10;;
2388;SDS011;1205;47.984;7.668;2023-06-22T10:24:08;21.23;;;9.03;;
2388;SDS011;1205;47.984;7.668;2023-06-22T10:26:34;17.00;;;9.10;;
2388;SDS011;1205;47.984;7.668;2023-06-22T10:29:02;21.43;;;10.30;;
2388;SDS011;1205;47.984;7.668;2023-06-22T10:31:27;16.60;;;9.13;;
2388;SDS011;1205;47.984;7.668;2023-06-22T10:33:54;21.13;;;9.70;;
2388;SDS011;1205;47.984;7.668;2023-06-22T10:36:20;19.53;;;9.47;;
2388;SDS011;1205;47.984;7.668;2023-06-22T10:38:46;21.03;;;10.20;;
2388;SDS011;1205;47.984;7.668;2023-06-22T10:41:12;22.93;;;8.90;;
2388;SDS011;1205;47.984;7.668;2023-06-22T10:43:38;15.13;;;8.70;;
2388;SDS011;1205;47.984;7.668;2023-06-22T10:46:04;11.33;;;8.93;;
2388;SDS011;1205;47.984;7.668;2023-06-22T10:48:31;21.03;;;9.10;;
2388;SDS011;1205;47.984;7.668;2023-06-22T10:50:57;18.23;;;9.90;;
2388;SDS011;1205;47.984;7.668;2023-06-22T10:53:23;15.63;;;10.70;;
2388;SDS011;1205;47.984;7.668;2023-06-22T10:55:48;16.87;;;9.77;;
2388;SDS011;1205;47.984;7.668;2023-06-22T10:58:14;15.13;;;9.53;;
2388;SDS011;1205;47.984;7.668;2023-06-22T11:00:40;17.30;;;9.53;;
2388;SDS011;1205;47.984;7.668;2023-06-22T11:03:05;16.63;;;10.13;;
2388;SDS011;1205;47.984;7.668;2023-06-22T11:05:31;15.67;;;10.00;;
2388;SDS011;1205;47.984;7.668;2023-06-22T11:07:57;15.57;;;10.50;;
2388;SDS011;1205;47.984;7.668;2023-06-22T11:10:22;16.93;;;12.00;;
2388;SDS011;1205;47.984;7.668;2023-06-22T11:12:48;13.27;;;10.00;;
2388;SDS011;1205;47.984;7.668;2023-06-22T11:15:14;16.87;;;10.60;;
2388;SDS011;1205;47.984;7.668;2023-06-22T11:17:40;20.50;;;10.90;;
2388;SDS011;1205;47.984;7.668;2023-06-22T11:20:05;21.10;;;11.53;;
2388;SDS011;1205;47.984;7.668;2023-06-22T11:22:38;16.90;;;10.17;;
2388;SDS011;1205;47.984;7.668;2023-06-22T11:25:07;15.80;;;10.20;;
2388;SDS011;1205;47.984;7.668;2023-06-22T11:27:33;16.10;;;10.10;;
2388;SDS011;1205;47.984;7.668;2023-06-22T11:29:59;13.83;;;9.70;;
2388;SDS011;1205;47.984;7.668;2023-06-22T11:32:25;15.50;;;9.37;;
2388;SDS011;1205;47.984;7.668;2023-06-22T11:34:51;22.20;;;10.87;;
2388;SDS011;1205;47.984;7.668;2023-06-22T11:37:17;11.70;;;8.40;;
2388;SDS011;1205;47.984;7.668;2023-06-22T11:39:42;15.90;;;8.97;;
2388;SDS011;1205;47.984;7.668;2023-06-22T11:42:08;21.93;;;10.70;;
2388;SDS011;1205;47.984;7.668;2023-06-22T11:44:35;13.73;;;8.90;;
2388;SDS011;1205;47.984;7.668;2023-06-22T11:47:00;20.53;;;10.20;;
2388;SDS011;1205;47.984;7.668;2023-06-22T11:49:28;12.10;;;9.47;;
2388;SDS011;1205;47.984;7.668;2023-06-22T11:51:54;14.07;;;9.57;;
2388;SDS011;1205;47.984;7.668;2023-06-22T11:54:20;16.13;;;10.47;;
2388;SDS011;1205;47.984;7.668;2023-06-22T11:56:45;17.10;;;9.03;;
2388;SDS011;1205;47.984;7.668;2023-06-22T11:59:11;20.23;;;11.03;;
2388;SDS011;1205;47.984;7.668;2023-06-22T12:01:36;16.10;;;10.17;;
2388;SDS011;1205;47.984;7.668;2023-06-22T12:04:02;19.20;;;10.60;;
2388;SDS011;1205;47.984;7.668;2023-06-22T12:06:30;16.57;;;12.20;;
2388;SDS011;1205;47.984;7.668;2023-06-22T12:08:57;16.70;;;9.53;;
2388;SDS011;1205;47.984;7.668;2023-06-22T12:11:23;11.70;;;8.27;;
2388;SDS011;1205;47.984;7.668;2023-06-22T12:13:48;15.23;;;9.00;;
2388;SDS011;1205;47.984;7.668;2023-06-22T12:16:14;13.67;;;8.07;;
2388;SDS011;1205;47.984;7.668;2023-06-22T12:18:39;13.37;;;8.57;;
2388;SDS011;1205;47.984;7.668;2023-06-22T12:21:05;13.87;;;7.90;;
2388;SDS011;1205;47.984;7.668;2023-06-22T12:23:30;17.20;;;7.90;;
2388;SDS011;1205;47.984;7.668;2023-06-22T12:25:56;19.23;;;7.90;;
2388;SDS011;1205;47.984;7.668;2023-06-22T12:28:22;9.97;;;7.10;;
2388;SDS011;1205;47.984;7.668;2023-06-22T12:30:48;17.50;;;7.27;;
2388;SDS011;1205;47.984;7.668;2023-06-22T12:33:14;15.73;;;7.60;;
2388;SDS011;1205;47.984;7.668;2023-06-22T12:35:39;17.97;;;7.17;;
2388;SDS011;1205;47.984;7.668;2023-06-22T12:38:05;17.93;;;7.00;;
2388;SDS011;1205;47.984;7.668;2023-06-22T12:40:32;16.10;;;6.50;;
2388;SDS011;1205;47.984;7.668;2023-06-22T12:42:58;16.10;;;6.10;;
2388;SDS011;1205;47.984;7.668;2023-06-22T12:45:23;23.20;;;7.10;;
2388;SDS011;1205;47.984;7.668;2023-06-22T12:47:50;23.30;;;7.13;;
2388;SDS011;1205;47.984;7.668;2023-06-22T12:50:15;11.93;;;6.93;;
2388;SDS011;1205;47.984;7.668;2023-06-22T12:52:41;36.17;;;8.50;;
2388;SDS011;1205;47.984;7.668;2023-06-22T12:55:07;19.93;;;6.80;;
2388;SDS011;1205;47.984;7.668;2023-06-22T12:57:33;12.07;;;6.77;;
2388;SDS011;1205;47.984;7.668;2023-06-22T12:59:58;14.20;;;7.00;;
2388;SDS011;1205;47.984;7.668;2023-06-22T13:02:25;13.77;;;6.93;;
2388;SDS011;1205;47.984;7.668;2023-06-22T13:04:51;16.83;;;8.07;;
2388;SDS011;1205;47.984;7.668;2023-06-22T13:07:16;19.50;;;7.83;;
2388;SDS011;1205;47.984;7.668;2023-06-22T13:09:42;15.73;;;7.33;;
2388;SDS011;1205;47.984;7.668;2023-06-22T13:12:08;23.00;;;7.37;;
2388;SDS011;1205;47.984;7.668;2023-06-22T13:14:33;14.53;;;7.40;;
2388;SDS011;1205;47.984;7.668;2023-06-22T13:16:59;14.63;;;6.90;;
2388;SDS011;1205;47.984;7.668;2023-06-22T13:19:24;15.27;;;6.93;;
2388;SDS011;1205;47.984;7.668;2023-06-22T13:21:53;18.17;;;7.00;;
2388;SDS011;1205;47.984;7.668;2023-06-22T13:24:19;19.40;;;6.93;;
2388;SDS011;1205;47.984;7.668;2023-06-22T13:26:44;14.83;;;6.23;;
2388;SDS011;1205;47.984;7.668;2023-06-22T13:29:10;16.03;;;7.30;;
2388;SDS011;1205;47.984;7.668;2023-06-22T13:31:36;13.90;;;7.17;;
2388;SDS011;1205;47.984;7.668;2023-06-22T13:34:02;17.30;;;6.50;;
2388;SDS011;1205;47.984;7.668;2023-06-22T13:36:27;11.97;;;5.80;;
2388;SDS011;1205;47.984;7.668;2023-06-22T13:38:55;18.00;;;6.77;;
2388;SDS011;1205;47.984;7.668;2023-06-22T13:41:21;24.53;;;6.90;;
2388;SDS011;1205;47.984;7.668;2023-06-22T13:43:46;16.03;;;6.17;;
2388;SDS011;1205;47.984;7.668;2023-06-22T13:46:12;15.73;;;6.93;;
2388;SDS011;1205;47.984;7.668;2023-06-22T13:48:38;20.20;;;7.30;;
2388;SDS011;1205;47.984;7.668;2023-06-22T13:51:03;12.93;;;6.97;;
2388;SDS011;1205;47.984;7.668;2023-06-22T13:53:29;17.27;;;6.60;;
2388;SDS011;1205;47.984;7.668;2023-06-22T13:55:55;14.07;;;6.80;;
2388;SDS011;1205;47.984;7.668;2023-06-22T13:58:21;13.50;;;6.93;;
2388;SDS011;1205;47.984;7.668;2023-06-22T14:00:46;21.73;;;6.27;;
2388;SDS011;1205;47.984;7.668;2023-06-22T14:03:14;17.10;;;7.23;;
2388;SDS011;1205;47.984;7.668;2023-06-22T14:05:41;16.37;;;7.07;;
2388;SDS011;1205;47.984;7.668;2023-06-22T14:08:07;21.17;;;7.83;;
2388;SDS011;1205;47.984;7.668;2023-06-22T14:10:32;27.63;;;7.33;;
2388;SDS011;1205;47.984;7.668;2023-06-22T14:12:58;12.60;;;6.70;;
2388;SDS011;1205;47.984;7.668;2023-06-22T14:15:25;12.80;;;6.70;;
2388;SDS011;1205;47.984;7.668;2023-06-22T14:17:50;14.23;;;6.67;;
2388;SDS011;1205;47.984;7.668;2023-06-22T14:20:16;12.13;;;5.80;;
2388;SDS011;1205;47.984;7.668;2023-06-22T14:22:42;13.63;;;6.20;;
2388;SDS011;1205;47.984;7.668;2023-06-22T14:25:08;18.23;;;6.40;;
2388;SDS011;1205;47.984;7.668;2023-06-22T14:27:33;12.20;;;6.80;;
2388;SDS011;1205;47.984;7.668;2023-06-22T14:29:59;20.50;;;7.83;;
2388;SDS011;1205;47.984;7.668;2023-06-22T14:32:24;13.97;;;6.47;;
2388;SDS011;1205;47.984;7.668;2023-06-22T14:34:52;11.27;;;5.90;;
2388;SDS011;1205;47.984;7.668;2023-06-22T14:37:17;19.33;;;7.20;;
2388;SDS011;1205;47.984;7.668;2023-06-22T14:39:43;13.23;;;5.93;;
2388;SDS011;1205;47.984;7.668;2023-06-22T14:42:08;25.23;;;6.30;;
2388;SDS011;1205;47.984;7.668;2023-06-22T14:44:34;11.27;;;5.40;;
2388;SDS011;1205;47.984;7.668;2023-06-22T14:47:00;19.20;;;6.20;;
2388;SDS011;1205;47.984;7.668;2023-06-22T14:49:26;11.00;;;5.77;;
2388;SDS011;1205;47.984;7.668;2023-06-22T14:51:51;17.23;;;6.33;;
2388;SDS011;1205;47.984;7.668;2023-06-22T14:54:17;15.17;;;6.10;;
2388;SDS011;1205;47.984;7.668;2023-06-22T14:56:42;13.93;;;5.37;;